Time;durP1;ratioP1;P1;durP2;ratioP2;P2;SDS_P1;SDS_P2;PMS_P1;PMS_P2;Temp;Humidity;BMP_temperature;BMP_pressure;BME280_temperature;BME280_humidity;BME280_pressure;Samples;Min_cycle;Max_cycle;Signal;HPM_P1;HPM_P2
2022/07/15 00:03:25;;;;;;;7.38;1.77;;;;;;;14.35;69.26;102313.97;10416377;28;20044;-76
2022/07/15 00:08:27;;;;;;;3.38;1.58;;;;;;;14.30;69.12;102308.25;10415364;28;20029;-76
2022/07/15 00:13:27;;;;;;;1.73;1.63;;;;;;;14.25;68.40;102313.41;10416317;28;20045;-76
2022/07/15 00:18:27;;;;;;;4.35;2.25;;;;;;;14.17;68.96;102311.63;10415129;28;20052;-76
2022/07/15 00:23:28;;;;;;;18.52;2.17;;;;;;;14.10;68.62;102304.38;10397968;28;20385;-76
2022/07/15 00:28:28;;;;;;;4.18;2.30;;;;;;;14.04;68.47;102308.72;10416120;28;20038;-76
2022/07/15 00:33:31;;;;;;;1.65;1.55;;;;;;;13.98;68.58;102303.16;10422633;28;20125;-76
2022/07/15 00:38:32;;;;;;;5.32;1.70;;;;;;;13.93;68.14;102292.81;10423562;28;20109;-76
2022/07/15 00:43:32;;;;;;;9.32;1.73;;;;;;;13.86;68.02;102300.88;10423468;28;20036;-76
2022/07/15 00:48:32;;;;;;;7.45;2.15;;;;;;;13.79;68.90;102291.75;10422659;28;20100;-76
2022/07/15 00:53:33;;;;;;;16.50;2.85;;;;;;;13.73;69.72;102296.06;10422441;28;20060;-76
2022/07/15 00:58:34;;;;;;;13.40;2.80;;;;;;;13.77;69.16;102292.97;10404779;28;20084;-76
2022/07/15 01:03:36;;;;;;;3.75;1.77;;;;;;;13.75;69.31;102298.59;10388342;28;20030;-76
2022/07/15 01:08:37;;;;;;;5.47;2.15;;;;;;;13.76;69.12;102305.75;10421357;28;20029;-76
2022/07/15 01:13:37;;;;;;;2.05;1.75;;;;;;;13.71;69.25;102305.44;10421085;28;20427;-76
2022/07/15 01:18:38;;;;;;;6.28;2.67;;;;;;;13.67;69.12;102304.13;10421496;28;20056;-76
2022/07/15 01:23:42;;;;;;;4.78;2.67;;;;;;;13.62;69.55;102303.81;10420504;28;20033;-76
2022/07/15 01:28:43;;;;;;;4.68;1.88;;;;;;;13.53;70.04;102303.06;10420662;28;20405;-76
2022/07/15 01:33:45;;;;;;;2.75;1.70;;;;;;;13.47;70.48;102311.94;10422590;28;20046;-76
2022/07/15 01:38:45;;;;;;;6.43;2.13;;;;;;;13.51;70.46;102305.09;10403125;28;20073;-76
2022/07/15 01:43:45;;;;;;;4.60;2.50;;;;;;;13.50;70.50;102300.69;10419451;28;20037;-76
2022/07/15 01:54:05;;;;;;;8.45;2.42;;;;;;;13.37;70.48;102295.00;10420923;28;20386;-76
2022/07/15 01:59:05;;;;;;;1.90;1.80;;;;;;;13.39;70.39;102303.81;10420622;28;20034;-75
2022/07/15 02:04:05;;;;;;;4.47;1.60;;;;;;;13.39;70.56;102306.56;10420401;28;20045;-76
2022/07/15 02:09:06;;;;;;;2.83;1.92;;;;;;;13.38;70.81;102300.28;10419317;28;20045;-76
2022/07/15 02:14:07;;;;;;;2.25;2.05;;;;;;;13.34;70.68;102300.81;10419815;28;20552;-76
2022/07/15 02:19:08;;;;;;;2.38;1.50;;;;;;;13.30;70.71;102299.47;10420101;28;20492;-76
2022/07/15 02:24:09;;;;;;;3.05;1.45;;;;;;;13.32;70.68;102294.72;10419080;28;20386;-76
2022/07/15 02:29:09;;;;;;;6.68;1.35;;;;;;;13.23;70.55;102293.88;10419310;28;20042;-76
2022/07/15 02:34:10;;;;;;;3.70;1.92;;;;;;;13.18;70.67;102299.88;10418652;28;20385;-76
2022/07/15 02:39:10;;;;;;;2.08;1.40;;;;;;;13.23;71.40;102305.59;10418375;28;20029;-76
2022/07/15 02:44:10;;;;;;;9.45;1.33;;;;;;;13.23;71.55;102302.88;10418259;28;20389;-76
2022/07/15 02:49:11;;;;;;;1.30;1.25;;;;;;;13.20;70.98;102305.13;10418743;28;20030;-76
2022/07/15 02:54:11;;;;;;;6.05;1.67;;;;;;;13.20;70.72;102305.97;10416609;28;20389;-76
2022/07/15 02:59:12;;;;;;;3.50;1.40;;;;;;;13.12;70.99;102305.19;10417192;28;20037;-76
2022/07/15 03:04:12;;;;;;;1.40;1.13;;;;;;;13.06;71.29;102308.63;10417560;28;20076;-76
2022/07/15 03:09:12;;;;;;;11.10;2.35;;;;;;;13.06;71.08;102314.91;10417476;28;20131;-76
2022/07/15 03:14:13;;;;;;;1.20;1.10;;;;;;;13.07;71.34;102321.19;10400724;28;20440;-76
2022/07/15 03:19:13;;;;;;;6.95;2.25;;;;;;;13.12;71.27;102337.84;10417131;28;20034;-76
2022/07/15 03:24:14;;;;;;;1.00;0.95;;;;;;;13.19;71.53;102336.94;10418521;28;20044;-76
2022/07/15 03:29:15;;;;;;;3.08;1.50;;;;;;;13.24;71.06;102336.38;10382518;28;20034;-76
2022/07/15 03:34:15;;;;;;;4.10;2.10;;;;;;;13.32;71.24;102344.53;10417836;28;20025;-77
2022/07/15 03:39:16;;;;;;;9.35;1.25;;;;;;;13.39;70.80;102342.75;10399796;28;20029;-76
2022/07/15 03:44:17;;;;;;;2.92;1.77;;;;;;;13.45;70.73;102346.66;10399690;28;20037;-76
2022/07/15 03:49:17;;;;;;;6.05;2.20;;;;;;;13.48;71.10;102346.28;10415220;28;20037;-76
2022/07/15 03:54:18;;;;;;;2.13;1.40;;;;;;;13.59;70.79;102353.16;10416382;28;20046;-76
2022/07/15 03:59:20;;;;;;;3.88;1.98;;;;;;;13.64;70.76;102354.31;10415187;28;20033;-76
2022/07/15 04:04:21;;;;;;;4.32;1.65;;;;;;;13.64;70.89;102357.03;10415817;28;20060;-73
2022/07/15 04:09:21;;;;;;;4.18;1.48;;;;;;;13.68;71.01;102363.81;10416070;28;20040;-72
2022/07/15 04:14:22;;;;;;;9.05;2.15;;;;;;;13.59;70.59;102356.75;10415470;28;20048;-72
2022/07/15 04:19:22;;;;;;;3.67;1.83;;;;;;;13.57;70.75;102364.25;10416330;28;20084;-73
2022/07/15 04:24:23;;;;;;;2.38;1.75;;;;;;;13.53;70.50;102370.22;10415298;28;20087;-72
2022/07/15 04:29:23;;;;;;;3.55;2.45;;;;;;;13.53;70.59;102367.50;10416366;28;20029;-73
2022/07/15 04:34:24;;;;;;;6.00;1.92;;;;;;;13.63;70.57;102371.69;10414675;28;20482;-72
2022/07/15 04:39:25;;;;;;;5.53;1.80;;;;;;;13.71;70.61;102373.50;10415050;28;20034;-69
2022/07/15 04:44:25;;;;;;;3.55;1.63;;;;;;;13.81;70.91;102375.97;10396825;28;20034;-70
2022/07/15 04:54:44;;;;;;;8.52;2.60;;;;;;;14.76;70.98;102365.31;10413279;28;20505;-71
2022/07/15 04:59:45;;;;;;;4.45;1.38;;;;;;;16.00;70.75;102374.22;10414608;28;20029;-72
2022/07/15 05:04:46;;;;;;;1.25;1.20;;;;;;;17.09;70.53;102370.91;10396612;28;20025;-69
2022/07/15 05:09:47;;;;;;;1.27;1.20;;;;;;;17.95;69.94;102366.69;10413802;28;20048;-69
2022/07/15 05:14:47;;;;;;;2.40;1.17;;;;;;;18.61;69.24;102361.09;10414407;28;20045;-69
2022/07/15 05:19:48;;;;;;;1.13;1.13;;;;;;;19.24;68.66;102354.94;10419953;28;20037;-75
2022/07/15 05:24:49;;;;;;;2.05;1.63;;;;;;;19.93;68.13;102350.47;10421234;28;20052;-75
2022/07/15 05:29:49;;;;;;;3.17;1.55;;;;;;;20.46;67.46;102351.88;10420156;28;20080;-75
2022/07/15 05:34:50;;;;;;;8.30;2.17;;;;;;;20.96;66.97;102341.53;10421638;28;20130;-75
2022/07/15 05:39:53;;;;;;;1.80;1.48;;;;;;;21.26;66.26;102351.75;10420756;28;20033;-75
2022/07/15 05:44:53;;;;;;;3.08;1.98;;;;;;;21.60;65.49;102341.94;10403122;28;20374;-75
2022/07/15 05:49:54;;;;;;;1.02;0.82;;;;;;;21.94;64.43;102339.47;10420497;28;20037;-75
2022/07/15 05:54:54;;;;;;;2.05;1.75;;;;;;;22.22;62.64;102333.28;10421257;28;20053;-75
2022/07/15 05:59:55;;;;;;;1.73;1.23;;;;;;;22.49;62.56;102331.69;10420110;28;20461;-75
2022/07/15 06:04:55;;;;;;;1.20;1.08;;;;;;;22.87;61.79;102341.31;10403463;28;20542;-75
2022/07/15 06:09:57;;;;;;;3.58;1.35;;;;;;;22.92;59.95;102341.44;10419717;28;20099;-75
2022/07/15 06:14:57;;;;;;;0.88;0.88;;;;;;;23.24;59.24;102338.22;10420138;28;20049;-75
2022/07/15 06:19:59;;;;;;;1.90;1.23;;;;;;;23.98;56.88;102334.53;10417260;28;20493;-76
2022/07/15 06:24:59;;;;;;;3.15;1.45;;;;;;;23.66;56.48;102335.91;10419217;28;20052;-75
2022/07/15 06:30:00;;;;;;;3.10;1.40;;;;;;;22.57;58.47;102337.94;10418804;28;20034;-75
2022/07/15 06:35:00;;;;;;;3.80;1.30;;;;;;;21.61;59.08;102345.56;10383835;28;20040;-75
2022/07/15 06:40:01;;;;;;;1.20;1.20;;;;;;;20.97;59.57;102346.00;10401222;28;20075;-76
2022/07/15 06:45:01;;;;;;;6.53;1.35;;;;;;;20.54;60.10;102351.59;10416755;28;20061;-75
2022/07/15 06:50:02;;;;;;;2.65;0.80;;;;;;;20.39;59.81;102354.72;10401849;28;20041;-75
2022/07/15 06:55:03;;;;;;;1.85;1.38;;;;;;;20.40;59.49;102365.47;10418561;28;20042;-75
2022/07/15 07:00:05;;;;;;;2.67;1.67;;;;;;;20.20;59.43;102371.19;10416643;28;20037;-75
2022/07/15 07:05:06;;;;;;;4.30;1.08;;;;;;;20.06;59.11;102361.34;10401023;28;20362;-76
2022/07/15 07:10:08;;;;;;;1.25;0.85;;;;;;;21.02;57.80;102361.81;10416280;28;20030;-75
2022/07/15 07:15:09;;;;;;;5.38;1.33;;;;;;;23.84;54.56;102354.25;10417116;28;20105;-76
2022/07/15 07:20:10;;;;;;;2.78;1.55;;;;;;;25.20;52.54;102355.59;10416275;28;20376;-76
2022/07/15 07:25:10;;;;;;;1.05;1.05;;;;;;;25.91;51.43;102349.06;10416287;28;20041;-75
2022/07/15 07:30:11;;;;;;;3.00;1.45;;;;;;;26.26;50.63;102353.19;10415780;28;20389;-76
2022/07/15 07:35:11;;;;;;;1.40;1.20;;;;;;;26.56;50.57;102352.56;10416346;28;20030;-76
2022/07/15 07:40:12;;;;;;;4.20;1.02;;;;;;;27.04;49.27;102354.16;10398777;28;20461;-76
2022/07/15 07:45:12;;;;;;;5.20;1.65;;;;;;;27.02;47.61;102358.31;10416946;28;20037;-76
2022/07/15 07:50:12;;;;;;;3.13;1.00;;;;;;;27.41;48.29;102355.94;10399139;28;20036;-76
2022/07/15 07:55:14;;;;;;;5.88;1.50;;;;;;;27.73;47.08;102357.66;10398712;28;20061;-76
2022/07/15 08:00:15;;;;;;;0.98;0.95;;;;;;;27.81;45.45;102346.78;10398370;28;20033;-76
2022/07/15 08:05:17;;;;;;;4.35;1.05;;;;;;;27.75;42.85;102344.25;10415712;28;20033;-76
2022/07/15 08:10:21;;;;;;;4.32;1.30;;;;;;;27.88;43.88;102348.47;10398686;28;20043;-77
2022/07/15 08:15:21;;;;;;;3.38;1.38;;;;;;;28.32;37.73;102345.06;10397771;28;20396;-76
2022/07/15 08:20:22;;;;;;;1.95;1.40;;;;;;;28.31;41.54;102341.44;10415108;28;20036;-76
2022/07/15 08:25:22;;;;;;;1.38;1.27;;;;;;;28.77;42.38;102348.84;10414745;28;20041;-77
2022/07/15 08:30:23;;;;;;;1.70;1.10;;;;;;;27.04;43.76;102344.97;10398032;28;20448;-77
2022/07/15 08:35:24;;;;;;;1.17;1.08;;;;;;;27.10;42.87;102339.16;10415912;28;20063;-77
2022/07/15 08:40:25;;;;;;;0.82;0.82;;;;;;;26.10;44.89;102353.13;10415026;28;20037;-77
2022/07/15 08:45:26;;;;;;;1.98;1.40;;;;;;;25.57;43.49;102349.31;10413582;28;20400;-76
2022/07/15 08:50:27;;;;;;;1.92;1.05;;;;;;;27.28;40.83;102343.41;10416685;28;20032;-77
2022/07/15 08:55:27;;;;;;;7.05;1.63;;;;;;;25.98;41.82;102346.91;10405075;28;20057;-76
2022/07/15 09:00:30;;;;;;;1.65;1.13;;;;;;;25.81;41.91;102358.13;10405075;28;20068;-77
2022/07/15 09:05:35;;;;;;;4.03;1.15;;;;;;;24.86;43.84;102354.91;10404908;28;20365;-76
2022/07/15 09:10:49;;;;;;;1.42;1.35;;;;;;;24.23;44.70;102357.06;10421369;28;20030;-76
2022/07/15 09:15:51;;;;;;;2.70;1.58;;;;;;;26.10;42.42;102347.56;10421637;28;20480;-76
2022/07/15 09:20:51;;;;;;;2.05;1.13;;;;;;;26.34;42.74;102344.38;10422498;28;20045;-76
2022/07/15 09:25:53;;;;;;;0.85;0.85;;;;;;;26.50;42.29;102342.53;10404463;28;20078;-77
2022/07/15 09:36:14;;;;;;;1.20;1.10;;;;;;;25.53;42.60;102331.53;10406730;28;20030;-77
2022/07/15 09:41:37;;;;;;;1.00;0.90;;;;;;;25.64;42.19;102335.22;10421966;28;20029;-76
2022/07/15 09:46:43;;;;;;;1.80;1.27;;;;;;;25.54;40.93;102335.13;10403255;28;20041;-76
2022/07/15 09:51:53;;;;;;;0.85;0.85;;;;;;;25.69;41.56;102332.50;10421298;28;20045;-76
2022/07/15 09:56:53;;;;;;;1.27;1.20;;;;;;;25.86;41.60;102329.59;10426499;28;20059;-76
2022/07/15 10:01:53;;;;;;;1.05;0.90;;;;;;;27.44;38.47;102335.94;10417983;28;20045;-76
2022/07/15 10:06:55;;;;;;;1.13;1.07;;;;;;;28.91;37.24;102328.41;10418288;28;20038;-76
2022/07/15 10:12:10;;;;;;;1.08;1.05;;;;;;;27.29;37.96;102325.59;10418639;28;20281;-76
2022/07/15 10:17:29;;;;;;;4.03;1.30;;;;;;;26.49;39.42;102322.25;10419986;28;20034;-76
2022/07/15 10:22:54;;;;;;;8.35;2.42;;;;;;;28.23;37.67;102314.97;10435564;28;20052;-77
2022/07/15 10:28:13;;;;;;;1.25;1.15;;;;;;;29.85;35.59;102307.94;10420860;28;20033;-77
2022/07/15 10:33:14;;;;;;;4.28;1.45;;;;;;;30.46;35.80;102303.69;10419224;28;20025;-76
2022/07/15 10:38:25;;;;;;;0.95;0.95;;;;;;;30.64;33.28;102300.09;10419449;28;20472;-77
2022/07/15 10:43:46;;;;;;;11.50;2.03;;;;;;;29.17;35.27;102292.84;10417080;28;20045;-77
2022/07/15 10:48:48;;;;;;;1.42;1.33;;;;;;;29.98;32.85;102295.25;10419368;28;20040;-77
2022/07/15 10:53:48;;;;;;;10.65;1.60;;;;;;;30.42;32.90;102294.22;10417870;28;20060;-77
2022/07/15 10:59:19;;;;;;;2.35;0.80;;;;;;;30.95;33.83;102288.50;10417523;28;20029;-77
2022/07/15 11:04:21;;;;;;;2.38;2.17;;;;;;;31.21;33.23;102298.19;10418752;28;20038;-77
2022/07/15 11:09:46;;;;;;;1.27;1.23;;;;;;;31.18;32.93;102296.00;10401111;28;20468;-77
2022/07/15 11:14:56;;;;;;;3.42;2.08;;;;;;;31.34;30.95;102299.41;10417756;28;20461;-77
2022/07/15 11:20:11;;;;;;;4.38;2.10;;;;;;;31.48;31.62;102299.44;10399443;28;20060;-77
2022/07/15 11:25:21;;;;;;;2.30;1.65;;;;;;;31.39;30.91;102296.50;10416334;28;20034;-77
2022/07/15 11:30:21;;;;;;;3.65;1.77;;;;;;;30.85;32.70;102294.25;10418019;28;20069;-77
2022/07/15 11:35:22;;;;;;;1.65;1.55;;;;;;;31.08;33.66;102281.31;10416312;28;20509;-77
2022/07/15 11:45:41;;;;;;;2.03;1.85;;;;;;;30.09;33.32;102275.31;10400929;28;20037;-77
2022/07/15 11:50:54;;;;;;;1.30;1.30;;;;;;;28.49;35.48;102270.34;10397984;28;20045;-76
2022/07/15 11:55:58;;;;;;;5.05;2.22;;;;;;;29.47;34.79;102257.47;10415729;28;20054;-76
2022/07/15 12:01:01;;;;;;;1.23;1.13;;;;;;;30.23;31.22;102249.47;10416261;28;20044;-76
2022/07/15 12:06:23;;;;;;;4.60;2.03;;;;;;;30.72;33.28;102251.88;10416199;28;20084;-77
2022/07/15 12:11:25;;;;;;;8.45;1.80;;;;;;;30.98;32.60;102257.13;10416774;28;20376;-76
2022/07/15 12:16:34;;;;;;;6.70;1.75;;;;;;;31.14;33.30;102260.50;10398602;28;20037;-76
2022/07/15 12:21:37;;;;;;;2.70;1.65;;;;;;;31.66;31.95;102250.97;10398990;28;20026;-76
2022/07/15 12:26:44;;;;;;;1.95;1.83;;;;;;;31.71;31.57;102259.25;10403123;28;20025;-76
2022/07/15 12:31:54;;;;;;;1.45;1.35;;;;;;;29.97;34.33;102248.91;10423206;28;20048;-76
2022/07/15 12:36:56;;;;;;;3.78;2.22;;;;;;;27.84;36.00;102261.06;10422478;28;20032;-76
2022/07/15 12:41:59;;;;;;;2.35;1.77;;;;;;;26.56;37.72;102256.16;10422690;28;20461;-76
2022/07/15 12:47:04;;;;;;;1.58;1.48;;;;;;;25.97;39.42;102259.16;10405573;28;20040;-76
2022/07/15 12:52:22;;;;;;;6.40;2.50;;;;;;;25.59;40.13;102266.69;10421746;28;20029;-76
2022/07/15 12:57:27;;;;;;;8.07;2.78;;;;;;;25.88;39.83;102271.91;10422946;28;20049;-76
2022/07/15 13:02:27;;;;;;;6.50;3.08;;;;;;;26.04;39.98;102264.47;10422973;28;20029;-76
2022/07/15 13:07:29;;;;;;;1.73;1.40;;;;;;;25.72;40.57;102265.38;10406339;28;20543;-77
2022/07/15 13:12:29;;;;;;;2.97;2.28;;;;;;;25.54;41.09;102265.78;10424618;28;20112;-76
2022/07/15 13:17:30;;;;;;;6.25;2.13;;;;;;;25.73;41.10;102259.56;10421256;28;20060;-76
2022/07/15 13:22:31;;;;;;;2.38;1.70;;;;;;;25.42;41.17;102257.63;10421219;28;20041;-76
2022/07/15 13:27:31;;;;;;;3.70;2.50;;;;;;;24.97;42.10;102264.41;10404984;28;20071;-76
2022/07/15 13:32:32;;;;;;;2.93;2.60;;;;;;;24.46;42.70;102261.88;10420459;28;20064;-77
2022/07/15 13:37:33;;;;;;;2.33;2.05;;;;;;;24.78;43.41;102264.75;10402134;28;20295;-75
2022/07/15 13:42:33;;;;;;;2.30;2.10;;;;;;;26.55;41.32;102245.34;10421059;28;20041;-76
2022/07/15 13:47:33;;;;;;;1.70;1.60;;;;;;;28.22;39.96;102249.25;10420844;28;20271;-76
2022/07/15 13:52:36;;;;;;;4.72;2.13;;;;;;;28.71;39.05;102245.69;10420162;28;20489;-76
2022/07/15 13:57:36;;;;;;;1.95;1.85;;;;;;;28.69;38.13;102242.38;10401831;28;20091;-76
2022/07/15 14:02:37;;;;;;;4.47;2.92;;;;;;;28.40;39.11;102238.63;10419128;28;20437;-76
2022/07/15 14:07:37;;;;;;;3.80;2.40;;;;;;;27.97;39.15;102239.03;10421292;28;20037;-76
2022/07/15 14:12:38;;;;;;;5.63;2.35;;;;;;;27.03;40.62;102235.72;10421537;28;20041;-76
2022/07/15 14:17:39;;;;;;;4.53;2.28;;;;;;;27.62;39.75;102228.78;10418953;28;20500;-76
2022/07/15 14:22:40;;;;;;;6.25;1.90;;;;;;;28.30;39.05;102225.53;10418951;28;20050;-76
2022/07/15 14:27:40;;;;;;;2.42;2.22;;;;;;;28.02;39.09;102227.88;10417982;28;20032;-76
2022/07/15 14:32:41;;;;;;;4.63;2.75;;;;;;;27.74;39.79;102220.13;10418945;28;20041;-76
2022/07/15 14:37:41;;;;;;;4.30;2.15;;;;;;;27.35;39.15;102227.13;10419216;28;20120;-76
2022/07/15 14:42:41;;;;;;;2.45;2.28;;;;;;;27.00;39.37;102218.75;10402803;28;20033;-76
2022/07/15 14:47:42;;;;;;;5.40;2.37;;;;;;;26.74;39.13;102226.19;10418229;28;20428;-75
2022/07/15 14:52:42;;;;;;;3.95;2.13;;;;;;;26.76;40.40;102215.66;10418227;28;20259;-75
2022/07/15 14:57:43;;;;;;;3.78;2.55;;;;;;;26.99;40.62;102219.84;10418267;28;20092;-76
2022/07/15 15:02:43;;;;;;;1.63;1.53;;;;;;;26.60;39.47;102226.72;10400675;28;20060;-75
2022/07/15 15:07:43;;;;;;;3.35;2.35;;;;;;;26.33;40.32;102213.00;10417625;28;20274;-76
2022/07/15 15:12:44;;;;;;;2.38;2.28;;;;;;;26.24;40.43;102217.41;10418113;28;20061;-76
2022/07/15 15:17:44;;;;;;;6.22;2.97;;;;;;;26.10;40.83;102219.00;10417123;28;20065;-74
2022/07/15 15:22:45;;;;;;;6.43;1.88;;;;;;;25.76;41.60;102211.00;10416438;28;20481;-74
2022/07/15 15:27:45;;;;;;;1.95;1.63;;;;;;;25.81;41.44;102204.69;10415442;28;20121;-74
2022/07/15 15:32:46;;;;;;;4.37;2.23;;;;;;;25.65;41.71;102201.78;10417100;28;20041;-74
2022/07/15 15:37:46;;;;;;;2.73;1.63;;;;;;;25.55;41.17;102206.44;10414626;28;20278;-74
2022/07/15 15:42:46;;;;;;;2.15;1.92;;;;;;;25.24;40.41;102195.97;10416194;28;20266;-75
2022/07/15 15:47:47;;;;;;;5.55;1.60;;;;;;;25.19;41.35;102195.91;10416101;28;20446;-75
2022/07/15 15:52:48;;;;;;;2.30;1.70;;;;;;;25.06;41.13;102197.16;10398507;28;20044;-75
2022/07/15 15:57:48;;;;;;;3.47;1.58;;;;;;;25.04;40.87;102196.56;10397513;28;20444;-75
2022/07/15 16:02:49;;;;;;;2.75;2.38;;;;;;;24.82;40.81;102193.88;10416494;28;20037;-74
2022/07/15 16:07:49;;;;;;;3.17;1.52;;;;;;;24.67;41.28;102201.19;10414825;28;20040;-74
2022/07/15 16:12:50;;;;;;;2.15;1.95;;;;;;;24.41;41.59;102203.69;10416092;28;20033;-74
2022/07/15 16:17:50;;;;;;;2.25;1.70;;;;;;;24.45;41.98;102190.16;10415669;28;20033;-74
2022/07/15 16:22:53;;;;;;;2.13;1.97;;;;;;;24.15;41.52;102185.88;10415392;28;20044;-74
2022/07/15 16:27:56;;;;;;;7.32;1.52;;;;;;;23.90;41.85;102181.69;10397386;28;20445;-74
2022/07/15 16:32:56;;;;;;;0.82;0.82;;;;;;;23.24;41.81;102191.72;10415049;28;20398;-74
2022/07/15 16:37:58;;;;;;;1.50;1.40;;;;;;;22.62;42.07;102177.88;10415785;28;20065;-74
2022/07/15 16:42:59;;;;;;;1.45;1.30;;;;;;;22.25;42.18;102175.50;10414701;28;20136;-74
2022/07/15 16:47:59;;;;;;;6.80;1.52;;;;;;;21.86;43.55;102183.50;10414761;28;20385;-74
2022/07/15 16:53:00;;;;;;;1.63;1.15;;;;;;;21.55;44.57;102177.25;10414106;28;20042;-73
2022/07/15 16:58:00;;;;;;;4.28;1.38;;;;;;;21.53;43.39;102173.91;10381251;28;20058;-74
2022/07/15 17:03:01;;;;;;;4.50;1.63;;;;;;;21.45;42.97;102171.53;10415845;28;20111;-73
2022/07/15 17:08:01;;;;;;;1.30;1.20;;;;;;;21.30;43.91;102168.34;10414456;28;20056;-73
2022/07/15 17:13:02;;;;;;;1.20;0.93;;;;;;;21.24;43.75;102161.88;10419823;28;20156;-74
2022/07/15 17:18:02;;;;;;;4.47;1.33;;;;;;;21.13;44.40;102166.31;10422686;28;20563;-73
2022/07/15 17:23:03;;;;;;;1.55;1.40;;;;;;;21.04;44.02;102162.22;10422346;28;20056;-74
2022/07/15 17:28:03;;;;;;;2.47;1.42;;;;;;;20.93;44.11;102162.19;10403844;28;20075;-73
2022/07/15 17:33:03;;;;;;;1.50;1.40;;;;;;;20.89;44.27;102173.66;10420823;28;20065;-74
2022/07/15 17:38:05;;;;;;;1.80;1.33;;;;;;;20.92;44.63;102164.09;10420645;28;20037;-73
2022/07/15 17:43:05;;;;;;;2.47;1.52;;;;;;;21.05;44.36;102169.41;10422230;28;20278;-73
2022/07/15 17:48:05;;;;;;;1.38;1.17;;;;;;;21.26;44.00;102170.75;10420854;28;20037;-73
2022/07/15 17:53:06;;;;;;;2.05;1.92;;;;;;;21.36;43.91;102172.94;10420040;28;20037;-74
2022/07/15 17:58:06;;;;;;;1.80;1.05;;;;;;;21.52;43.30;102175.00;10420124;28;20054;-73
2022/07/15 18:03:07;;;;;;;1.88;1.13;;;;;;;21.46;43.50;102167.69;10420215;28;20029;-74
2022/07/15 18:08:12;;;;;;;2.20;1.15;;;;;;;21.25;44.57;102168.22;10420676;28;20037;-74
2022/07/15 18:13:12;;;;;;;1.40;1.30;;;;;;;21.08;44.46;102165.34;10419947;28;20522;-74
2022/07/15 18:18:13;;;;;;;1.63;1.52;;;;;;;21.01;44.69;102164.59;10419112;28;20108;-73
2022/07/15 18:23:14;;;;;;;1.60;1.42;;;;;;;20.94;45.11;102156.47;10419084;28;20044;-74
2022/07/15 18:28:14;;;;;;;2.55;1.40;;;;;;;20.87;45.46;102159.31;10420442;28;20049;-73
2022/07/15 18:33:14;;;;;;;1.95;1.35;;;;;;;20.81;45.02;102142.91;10419250;28;20488;-74
2022/07/15 18:38:34;;;;;;;1.13;1.13;;;;;;;20.76;45.18;102142.75;10420046;28;20060;-73
2022/07/15 18:43:38;;;;;;;1.40;1.30;;;;;;;20.63;45.33;102135.53;10419046;28;20512;-73
2022/07/15 18:48:38;;;;;;;3.08;1.23;;;;;;;20.42;46.73;102125.84;10418304;28;20473;-73
2022/07/15 18:53:39;;;;;;;2.65;1.95;;;;;;;20.30;46.88;102131.34;10417237;28;20129;-73
2022/07/15 18:58:41;;;;;;;1.00;0.85;;;;;;;20.27;46.84;102126.28;10417911;28;20059;-73
2022/07/15 19:03:41;;;;;;;1.08;1.02;;;;;;;20.19;47.35;102134.84;10419072;28;20037;-73
2022/07/15 19:08:42;;;;;;;2.25;1.23;;;;;;;20.08;47.24;102124.66;10399942;28;20037;-73
2022/07/15 19:13:44;;;;;;;1.50;1.40;;;;;;;20.03;47.49;102119.81;10416900;28;20034;-74
2022/07/15 19:18:44;;;;;;;4.32;2.10;;;;;;;19.96;47.21;102110.81;10401190;28;20029;-73
2022/07/15 19:23:45;;;;;;;1.40;1.40;;;;;;;19.94;47.03;102119.31;10416042;28;20041;-73
2022/07/15 19:28:46;;;;;;;2.65;1.13;;;;;;;19.89;47.56;102110.91;10416680;28;20536;-74
2022/07/15 19:33:46;;;;;;;5.80;1.92;;;;;;;19.88;47.35;102122.16;10417682;28;20087;-69
2022/07/15 19:38:47;;;;;;;4.55;2.35;;;;;;;19.84;47.18;102118.16;10415752;28;20033;-69
2022/07/15 19:44:07;;;;;;;4.50;2.58;;;;;;;19.71;47.31;102130.16;10417783;28;20092;-68
2022/07/15 19:49:08;;;;;;;4.25;1.92;;;;;;;19.52;47.45;102123.75;10417033;28;20394;-68
2022/07/15 19:54:08;;;;;;;3.35;1.35;;;;;;;19.35;49.50;102119.94;10415674;28;20065;-68
2022/07/15 20:04:47;;;;;;;3.05;1.73;;;;;;;19.16;49.70;102125.38;10289485;28;20035;-68
2022/07/15 20:09:48;;;;;;;2.75;2.30;;;;;;;19.05;49.90;102132.47;10386080;28;20049;-68
2022/07/15 20:14:49;;;;;;;3.22;2.17;;;;;;;18.90;50.04;102125.63;10416853;28;20369;-69
2022/07/15 20:19:49;;;;;;;4.50;2.03;;;;;;;18.69;50.39;102130.38;10415521;28;20380;-68
2022/07/15 20:24:50;;;;;;;3.47;2.83;;;;;;;18.54;50.51;102127.13;10414893;28;20121;-69
2022/07/15 20:29:51;;;;;;;2.53;2.20;;;;;;;18.48;50.46;102123.34;10414852;28;20093;-69
2022/07/15 20:34:52;;;;;;;1.95;1.83;;;;;;;18.53;50.92;102123.50;10415874;28;20128;-68
2022/07/15 20:39:52;;;;;;;9.85;1.83;;;;;;;18.65;51.33;102128.31;10415067;28;20037;-68
2022/07/15 20:44:53;;;;;;;3.78;1.38;;;;;;;18.72;51.30;102120.84;10415143;28;20077;-68
2022/07/15 20:49:53;;;;;;;4.05;2.17;;;;;;;18.61;52.63;102118.84;10405686;28;20094;-69
2022/07/15 20:54:53;;;;;;;3.67;1.63;;;;;;;18.41;52.17;102111.56;10405797;28;20054;-69
2022/07/15 20:59:54;;;;;;;2.17;2.08;;;;;;;18.23;52.78;102108.72;10422591;28;20061;-68
2022/07/15 21:04:55;;;;;;;4.07;1.52;;;;;;;18.08;52.14;102111.72;10421956;28;20119;-68
2022/07/15 21:09:55;;;;;;;4.68;2.25;;;;;;;17.93;53.76;102113.91;10422328;28;20045;-69
2022/07/15 21:14:55;;;;;;;3.63;1.85;;;;;;;17.91;53.53;102099.59;10422650;28;20033;-67
2022/07/15 21:19:56;;;;;;;6.45;2.17;;;;;;;17.73;53.99;102101.09;10421676;28;20034;-68
2022/07/15 21:30:15;;;;;;;1.50;1.42;;;;;;;17.60;55.39;102103.88;10421567;28;20038;-68
2022/07/15 21:35:16;;;;;;;2.13;1.73;;;;;;;17.64;58.01;102095.03;10422483;28;20045;-68
2022/07/15 21:40:17;;;;;;;3.33;1.67;;;;;;;17.87;59.65;102097.28;10420438;28;20033;-68
2022/07/15 21:45:18;;;;;;;3.35;1.67;;;;;;;17.97;57.78;102096.81;10403411;28;20048;-67
2022/07/15 21:50:18;;;;;;;2.38;1.58;;;;;;;17.85;57.37;102093.91;10418662;28;20061;-68
2022/07/15 21:55:19;;;;;;;2.03;1.50;;;;;;;17.99;59.38;102102.06;10421480;28;20095;-68
2022/07/15 22:00:37;;;;;;;2.47;1.58;;;;;;;18.25;58.80;102101.97;10419410;28;20084;-68
2022/07/15 22:05:38;;;;;;;7.45;2.13;;;;;;;18.44;58.83;102111.13;10421933;28;20037;-68
2022/07/15 22:10:38;;;;;;;1.35;1.25;;;;;;;18.53;62.06;102107.03;10420426;28;20124;-68
2022/07/15 22:15:39;;;;;;;1.85;1.50;;;;;;;18.57;64.88;102100.06;10401511;28;20034;-69
2022/07/15 22:20:39;;;;;;;2.38;1.40;;;;;;;18.63;61.01;102109.28;10420439;28;20116;-69
2022/07/15 22:25:39;;;;;;;2.35;1.70;;;;;;;18.61;63.86;102111.44;10419356;28;20492;-69
2022/07/15 22:30:40;;;;;;;1.00;1.00;;;;;;;18.68;59.91;102106.75;10400936;28;20121;-75
2022/07/15 22:35:40;;;;;;;1.42;1.33;;;;;;;18.68;60.15;102111.41;10418981;28;20037;-74
2022/07/15 22:40:41;;;;;;;4.20;1.75;;;;;;;18.69;59.70;102108.41;10401067;28;20428;-74
2022/07/15 22:45:43;;;;;;;2.30;1.13;;;;;;;18.70;60.94;102112.03;10419217;28;20037;-74
2022/07/15 22:50:46;;;;;;;3.85;1.92;;;;;;;18.77;60.32;102116.41;10419526;28;20032;-73
2022/07/15 22:55:48;;;;;;;1.52;1.33;;;;;;;18.80;61.33;102120.63;10418555;28;20056;-73
2022/07/15 23:00:49;;;;;;;6.88;1.75;;;;;;;18.77;61.38;102110.94;10418448;28;20477;-74
2022/07/15 23:05:49;;;;;;;2.03;1.92;;;;;;;18.74;63.76;102111.38;10418504;28;20116;-73
2022/07/15 23:10:49;;;;;;;5.75;2.53;;;;;;;18.76;61.88;102122.97;10383596;28;20489;-73
2022/07/15 23:15:50;;;;;;;1.75;1.65;;;;;;;18.77;62.81;102107.34;10417516;28;20037;-73
2022/07/15 23:20:51;;;;;;;7.55;2.75;;;;;;;18.84;63.77;102121.84;10417340;28;20026;-73
2022/07/15 23:25:52;;;;;;;3.13;1.23;;;;;;;18.86;62.38;102119.75;10417031;28;20445;-73
2022/07/15 23:30:52;;;;;;;1.80;1.70;;;;;;;18.86;62.95;102114.25;10416936;28;20144;-73
2022/07/15 23:35:53;;;;;;;1.88;1.77;;;;;;;18.83;61.37;102114.69;10416175;28;20033;-74
2022/07/15 23:40:53;;;;;;;4.78;2.15;;;;;;;18.66;61.63;102113.50;10416390;28;20076;-73